Time;durP1;ratioP1;P1;durP2;ratioP2;P2;SDS_P1;SDS_P2;PMS_P1;PMS_P2;Temp;Humidity;BMP_temperature;BMP_pressure;BME280_temperature;BME280_humidity;BME280_pressure;Samples;Min_cycle;Max_cycle;Signal;HPM_P1;HPM_P2
2023/03/03 00:00:42;;;;;;;1999.90;999.90;;;2.00;99.90;;;;;;5072177;28;20447;-68
2023/03/03 00:03:15;;;;;;;1999.90;999.90;;;1.80;99.90;;;;;;5070986;28;20478;-70
2023/03/03 00:05:42;;;;;;;1999.90;999.90;;;1.70;99.90;;;;;;5072330;28;20443;-67
2023/03/03 00:08:09;;;;;;;1999.90;999.90;;;1.70;99.90;;;;;;5071935;28;20497;-68
2023/03/03 00:10:36;;;;;;;1999.90;999.90;;;1.60;99.90;;;;;;5072172;28;20440;-67
2023/03/03 00:13:03;;;;;;;1999.90;999.90;;;1.60;99.90;;;;;;5070852;28;20462;-68
2023/03/03 00:15:31;;;;;;;1999.90;999.90;;;1.60;99.90;;;;;;5071941;28;20483;-67
2023/03/03 00:17:59;;;;;;;1999.90;999.90;;;1.50;99.90;;;;;;5071984;28;20443;-69
2023/03/03 00:20:34;;;;;;;1999.90;999.90;;;1.40;99.90;;;;;;5071963;28;20963;-67
2023/03/03 00:23:15;;;;;;;1999.90;999.90;;;1.40;99.90;;;;;;5070506;28;20477;-69
2023/03/03 00:25:44;;;;;;;1999.90;999.90;;;1.30;99.90;;;;;;5071835;28;20465;-67
2023/03/03 00:28:23;;;;;;;1999.90;999.90;;;1.30;99.90;;;;;;5071769;28;20474;-68
2023/03/03 00:30:51;;;;;;;1999.90;999.90;;;1.30;99.90;;;;;;5071628;28;20515;-68
2023/03/03 00:33:28;;;;;;;1999.90;999.90;;;1.20;99.90;;;;;;5070261;28;20471;-67
2023/03/03 00:35:58;;;;;;;1999.90;999.90;;;1.30;99.90;;;;;;5071453;28;20497;-66
2023/03/03 00:38:26;;;;;;;1999.90;999.90;;;1.40;99.90;;;;;;5071673;28;20443;-66
2023/03/03 00:40:53;;;;;;;1999.90;999.90;;;1.40;99.90;;;;;;5071041;28;20451;-67
2023/03/03 00:43:21;;;;;;;1999.90;999.90;;;1.40;99.90;;;;;;5070039;28;20474;-68
2023/03/03 00:45:49;;;;;;;1999.90;999.90;;;1.40;99.90;;;;;;5070806;28;20455;-70
2023/03/03 00:48:27;;;;;;;1999.90;999.90;;;1.40;99.90;;;;;;5071295;28;20473;-70
2023/03/03 00:50:57;;;;;;;1999.90;999.90;;;1.40;99.90;;;;;;5071022;28;20449;-69
2023/03/03 00:53:25;;;;;;;1999.90;999.90;;;1.50;99.90;;;;;;5069815;28;21099;-67
2023/03/03 00:55:53;;;;;;;1999.90;999.90;;;1.50;99.90;;;;;;5070488;28;20475;-67
2023/03/03 00:58:20;;;;;;;1999.90;999.90;;;1.40;99.90;;;;;;5070648;28;20439;-67
2023/03/03 01:00:48;;;;;;;1999.90;999.90;;;1.40;99.90;;;;;;5070865;28;20447;-68
2023/03/03 01:03:18;;;;;;;1999.90;999.90;;;1.40;99.90;;;;;;5069376;28;20463;-69
2023/03/03 01:05:45;;;;;;;1999.90;999.90;;;1.30;99.90;;;;;;5070692;28;20451;-69
2023/03/03 01:08:13;;;;;;;1999.90;999.90;;;1.40;99.90;;;;;;5070678;28;20447;-67
2023/03/03 01:10:43;;;;;;;1999.90;999.90;;;1.30;99.90;;;;;;5070676;28;20508;-68
2023/03/03 01:13:10;;;;;;;1999.90;999.90;;;1.30;99.90;;;;;;5068094;28;20980;-67
2023/03/03 01:15:38;;;;;;;1999.90;999.90;;;1.20;99.90;;;;;;5070514;28;20479;-66
2023/03/03 01:18:05;;;;;;;1999.90;999.90;;;1.20;99.90;;;;;;5070570;28;20455;-67
2023/03/03 01:20:32;;;;;;;1999.90;999.90;;;1.10;99.90;;;;;;5070135;28;20447;-69
2023/03/03 01:22:59;;;;;;;1999.90;999.90;;;1.10;99.90;;;;;;5069373;28;20470;-69
2023/03/03 01:25:27;;;;;;;1999.90;999.90;;;1.00;99.90;;;;;;5070184;28;20443;-67
2023/03/03 01:27:54;;;;;;;1999.90;999.90;;;1.00;99.90;;;;;;5070319;28;20450;-68
2023/03/03 01:30:21;;;;;;;1999.90;999.90;;;1.00;99.90;;;;;;5070424;28;20447;-67
2023/03/03 01:32:48;;;;;;;1999.90;999.90;;;1.00;99.90;;;;;;5068903;28;20588;-67
2023/03/03 01:35:15;;;;;;;1999.90;999.90;;;0.90;99.90;;;;;;5070220;28;20483;-68
2023/03/03 01:37:42;;;;;;;1999.90;999.90;;;0.80;99.90;;;;;;5070187;28;20447;-69
2023/03/03 01:40:14;;;;;;;1999.90;999.90;;;0.80;99.90;;;;;;5070273;28;20467;-68
2023/03/03 01:42:42;;;;;;;1999.90;999.90;;;0.80;99.90;;;;;;5068967;28;20435;-68
2023/03/03 01:45:23;;;;;;;1999.90;999.90;;;0.70;99.90;;;;;;5069806;28;20450;-68
2023/03/03 01:47:59;;;;;;;1999.90;999.90;;;0.70;99.90;;;;;;5070168;28;20449;-71
2023/03/03 01:50:38;;;;;;;1999.90;999.90;;;0.60;99.90;;;;;;5069924;28;20451;-66
2023/03/03 01:53:09;;;;;;;1999.90;999.90;;;0.70;99.90;;;;;;5068794;28;20470;-67
2023/03/03 01:55:39;;;;;;;1999.90;999.90;;;0.70;99.90;;;;;;5069773;28;20842;-67
2023/03/03 01:58:11;;;;;;;1999.90;999.90;;;0.70;99.90;;;;;;5069949;28;20473;-67
2023/03/03 02:00:41;;;;;;;1999.90;999.90;;;0.70;99.90;;;;;;5069771;28;20952;-69
2023/03/03 02:03:08;;;;;;;1999.90;999.90;;;0.60;99.90;;;;;;5068974;28;20462;-68
2023/03/03 02:05:35;;;;;;;1999.90;999.90;;;0.70;99.90;;;;;;5069793;28;20446;-67
2023/03/03 02:08:03;;;;;;;1999.90;999.90;;;0.70;99.90;;;;;;5070068;28;20498;-68
2023/03/03 02:10:31;;;;;;;1999.90;999.90;;;0.70;99.90;;;;;;5069517;28;20446;-71
2023/03/03 02:12:59;;;;;;;1999.90;999.90;;;0.60;99.90;;;;;;5068707;28;21170;-67
2023/03/03 02:15:31;;;;;;;1999.90;999.90;;;0.60;99.90;;;;;;5070004;28;20483;-67
2023/03/03 02:18:00;;;;;;;1999.90;999.90;;;0.50;99.90;;;;;;5070310;28;20959;-67
2023/03/03 02:20:37;;;;;;;1999.90;999.90;;;0.40;99.90;;;;;;5069992;28;20443;-69
2023/03/03 02:23:10;;;;;;;1999.90;999.90;;;0.50;99.90;;;;;;5068865;28;20903;-70
2023/03/03 02:25:43;;;;;;;1999.90;999.90;;;0.50;99.90;;;;;;5070103;28;20443;-71
2023/03/03 02:28:12;;;;;;;1999.90;999.90;;;0.40;99.90;;;;;;5070059;28;20516;-67
2023/03/03 02:30:39;;;;;;;1999.90;999.90;;;0.40;99.90;;;;;;5070024;28;20451;-68
2023/03/03 02:33:07;;;;;;;1999.90;999.90;;;0.40;99.90;;;;;;5068949;28;20466;-66
2023/03/03 02:35:35;;;;;;;1999.90;999.90;;;0.40;99.90;;;;;;5069543;28;20482;-68
2023/03/03 02:38:14;;;;;;;1999.90;999.90;;;0.40;99.90;;;;;;5069764;28;20439;-68
2023/03/03 02:40:49;;;;;;;1999.90;999.90;;;0.20;99.90;;;;;;5070104;28;20521;-68
2023/03/03 02:43:21;;;;;;;1999.90;999.90;;;0.20;99.90;;;;;;5068754;28;20467;-68
2023/03/03 02:45:48;;;;;;;1999.90;999.90;;;0.10;99.90;;;;;;5067680;28;20447;-66
2023/03/03 02:48:14;;;;;;;1999.90;999.90;;;0.10;99.90;;;;;;5070880;28;20518;-67
2023/03/03 02:50:41;;;;;;;1999.90;999.90;;;0.20;99.90;;;;;;5071566;28;20443;-68
2023/03/03 02:53:08;;;;;;;1999.90;999.90;;;0.30;99.90;;;;;;5078657;28;20473;-67
2023/03/03 02:55:35;;;;;;;1999.90;999.90;;;0.20;99.90;;;;;;5082880;28;20478;-67
2023/03/03 02:58:01;;;;;;;1999.90;999.90;;;0.20;99.90;;;;;;5083505;28;20443;-68
2023/03/03 03:00:31;;;;;;;1999.90;999.90;;;0.20;99.90;;;;;;5081681;28;20522;-67
2023/03/03 03:02:58;;;;;;;1999.90;999.90;;;0.30;99.90;;;;;;5080595;28;20608;-68
2023/03/03 03:05:24;;;;;;;1999.90;999.90;;;0.30;99.90;;;;;;5086762;28;20442;-68
2023/03/03 03:07:51;;;;;;;1999.90;999.90;;;0.40;99.90;;;;;;5087438;28;20447;-67
2023/03/03 03:10:18;;;;;;;1999.90;999.90;;;0.40;99.90;;;;;;5084271;28;20450;-67
2023/03/03 03:12:45;;;;;;;1999.90;999.90;;;0.40;99.90;;;;;;5081479;28;20474;-69
2023/03/03 03:15:11;;;;;;;1999.90;999.90;;;0.40;99.90;;;;;;5074398;28;20481;-67
2023/03/03 03:17:40;;;;;;;1999.90;999.90;;;0.50;99.90;;;;;;5074111;28;20442;-67
2023/03/03 03:20:07;;;;;;;1999.90;999.90;;;0.60;99.90;;;;;;5074053;28;20477;-70
2023/03/03 03:22:34;;;;;;;1999.90;999.90;;;0.60;99.90;;;;;;5073365;28;20447;-68
2023/03/03 03:25:01;;;;;;;1999.90;999.90;;;0.50;99.90;;;;;;5073753;28;20449;-68
2023/03/03 03:27:28;;;;;;;1999.90;999.90;;;0.60;99.90;;;;;;5073854;28;20948;-70
2023/03/03 03:29:55;;;;;;;1999.90;999.90;;;0.70;99.90;;;;;;5073674;28;20944;-66
2023/03/03 03:32:21;;;;;;;1999.90;999.90;;;0.80;99.90;;;;;;5072989;28;20450;-69
2023/03/03 03:34:50;;;;;;;1999.90;999.90;;;0.90;99.90;;;;;;5073089;28;20447;-69
2023/03/03 03:37:16;;;;;;;1999.90;999.90;;;1.00;99.90;;;;;;5073216;28;20487;-68
2023/03/03 03:39:43;;;;;;;1999.90;999.90;;;1.10;99.90;;;;;;5073455;28;20451;-67
2023/03/03 03:42:10;;;;;;;1999.90;999.90;;;1.10;99.90;;;;;;5072854;28;20975;-69
2023/03/03 03:44:37;;;;;;;1999.90;999.90;;;1.00;99.90;;;;;;5089481;28;20502;-68
2023/03/03 03:47:03;;;;;;;1999.90;999.90;;;1.00;99.90;;;;;;5093463;28;20458;-67
2023/03/03 03:49:30;;;;;;;1999.90;999.90;;;1.10;99.90;;;;;;5093363;28;20446;-69
2023/03/03 03:51:58;;;;;;;1999.90;999.90;;;1.10;99.90;;;;;;5092976;28;20438;-68
2023/03/03 03:54:25;;;;;;;1999.90;999.90;;;1.20;99.90;;;;;;5092091;28;20607;-67
2023/03/03 03:56:53;;;;;;;1999.90;999.90;;;1.20;99.90;;;;;;5093030;28;20493;-67
2023/03/03 03:59:20;;;;;;;1999.90;999.90;;;1.10;99.90;;;;;;5092931;28;20446;-67
2023/03/03 04:01:48;;;;;;;1999.90;999.90;;;1.10;99.90;;;;;;5092540;28;20454;-69
2023/03/03 04:04:16;;;;;;;1999.90;999.90;;;1.10;99.90;;;;;;5090896;28;20469;-68
2023/03/03 04:06:42;;;;;;;1999.90;999.90;;;1.20;99.90;;;;;;5092630;28;20450;-67
2023/03/03 04:09:10;;;;;;;1999.90;999.90;;;1.20;99.90;;;;;;5092359;28;20457;-70
2023/03/03 04:11:37;;;;;;;1999.90;999.90;;;1.10;99.90;;;;;;5092305;28;20449;-70
2023/03/03 04:14:04;;;;;;;1999.90;999.90;;;1.30;99.90;;;;;;5090639;28;20466;-68
2023/03/03 04:16:31;;;;;;;1999.90;999.90;;;1.30;99.90;;;;;;5092074;28;20474;-71
2023/03/03 04:18:58;;;;;;;1999.90;999.90;;;1.40;99.90;;;;;;5092224;28;20450;-67
2023/03/03 04:21:25;;;;;;;1999.90;999.90;;;1.40;99.90;;;;;;5092122;28;20438;-67
2023/03/03 04:23:52;;;;;;;1999.90;999.90;;;1.40;99.90;;;;;;5091055;28;20469;-70
2023/03/03 04:26:20;;;;;;;1999.90;999.90;;;1.60;99.90;;;;;;5091984;28;20932;-67
2023/03/03 04:28:47;;;;;;;1999.90;999.90;;;1.60;99.90;;;;;;5091834;28;20449;-67
2023/03/03 04:31:14;;;;;;;1999.90;999.90;;;1.70;99.90;;;;;;5091875;28;20465;-69
2023/03/03 04:33:40;;;;;;;1999.90;999.90;;;1.80;99.90;;;;;;5090265;28;20846;-69
2023/03/03 04:36:08;;;;;;;1999.90;999.90;;;1.90;99.90;;;;;;5091943;28;20485;-67
2023/03/03 04:38:34;;;;;;;1999.90;999.90;;;1.90;99.90;;;;;;5091783;28;20860;-69
2023/03/03 04:41:01;;;;;;;1999.90;999.90;;;2.00;99.90;;;;;;5091915;28;20942;-66
2023/03/03 04:43:29;;;;;;;1999.90;999.90;;;2.10;99.90;;;;;;5090214;28;20462;-70
2023/03/03 04:45:56;;;;;;;1999.90;999.90;;;2.00;99.90;;;;;;5091429;28;20959;-67
2023/03/03 04:48:23;;;;;;;1999.90;999.90;;;1.90;99.90;;;;;;5091298;28;20958;-67
2023/03/03 04:50:50;;;;;;;1999.90;999.90;;;1.80;99.90;;;;;;5091727;28;20446;-67
2023/03/03 04:53:16;;;;;;;1999.90;999.90;;;1.70;99.90;;;;;;5090342;28;20461;-67
2023/03/03 04:55:43;;;;;;;1999.90;999.90;;;1.80;99.90;;;;;;5091155;28;20458;-68
2023/03/03 04:58:10;;;;;;;1999.90;999.90;;;1.90;99.90;;;;;;5091375;28;20442;-67
2023/03/03 05:00:38;;;;;;;1999.90;999.90;;;2.00;99.90;;;;;;5091038;28;20451;-66
2023/03/03 05:03:05;;;;;;;1999.90;999.90;;;2.00;99.90;;;;;;5090117;28;20454;-67
2023/03/03 05:05:32;;;;;;;1999.90;999.90;;;1.90;99.90;;;;;;5091140;28;20442;-68
2023/03/03 05:07:59;;;;;;;1999.90;999.90;;;1.90;99.90;;;;;;5091263;28;20860;-71
2023/03/03 05:10:25;;;;;;;1999.90;999.90;;;1.90;99.90;;;;;;5090914;28;21072;-67
2023/03/03 05:12:52;;;;;;;1999.90;999.90;;;1.90;99.90;;;;;;5089669;28;20462;-67
2023/03/03 05:15:19;;;;;;;1999.90;999.90;;;1.90;99.90;;;;;;5090787;28;20453;-69
2023/03/03 05:17:47;;;;;;;1999.90;999.90;;;1.90;99.90;;;;;;5090558;28;20593;-66
2023/03/03 05:20:14;;;;;;;1999.90;999.90;;;1.90;99.90;;;;;;5091158;28;20661;-68
2023/03/03 05:22:41;;;;;;;1999.90;999.90;;;1.90;99.90;;;;;;5089530;28;20450;-68
2023/03/03 05:25:09;;;;;;;1999.90;999.90;;;2.00;99.90;;;;;;5090748;28;20948;-67
2023/03/03 05:27:36;;;;;;;1999.90;999.90;;;1.90;99.90;;;;;;5089710;28;20528;-68
2023/03/03 05:30:04;;;;;;;1999.90;999.90;;;1.90;99.90;;;;;;5090793;28;20455;-68
2023/03/03 05:32:31;;;;;;;1999.90;999.90;;;1.90;99.90;;;;;;5089677;28;20445;-67
2023/03/03 05:34:59;;;;;;;1999.90;999.90;;;2.00;99.90;;;;;;5090515;28;20445;-67
2023/03/03 05:37:26;;;;;;;1999.90;999.90;;;2.00;99.90;;;;;;5075736;28;20482;-66
2023/03/03 05:39:53;;;;;;;1999.90;999.90;;;2.00;99.90;;;;;;5070018;28;20450;-66
2023/03/03 05:42:20;;;;;;;1999.90;999.90;;;2.00;99.90;;;;;;5069561;28;20454;-67
2023/03/03 05:44:47;;;;;;;1999.90;999.90;;;2.00;99.90;;;;;;5069565;28;20522;-69
2023/03/03 05:47:14;;;;;;;1999.90;999.90;;;2.10;99.90;;;;;;5070170;28;20447;-68
2023/03/03 05:49:40;;;;;;;1999.90;999.90;;;2.20;99.90;;;;;;5070125;28;20443;-68
2023/03/03 05:52:09;;;;;;;1999.90;999.90;;;2.30;99.90;;;;;;5070019;28;20949;-68
2023/03/03 05:54:36;;;;;;;1999.90;999.90;;;2.30;99.90;;;;;;5068718;28;20996;-67
2023/03/03 05:57:02;;;;;;;1999.90;999.90;;;2.30;99.90;;;;;;5069930;28;20493;-64
2023/03/03 05:59:29;;;;;;;1999.90;999.90;;;2.30;99.90;;;;;;5070096;28;20457;-65
2023/03/03 06:01:56;;;;;;;1999.90;999.90;;;2.40;99.90;;;;;;5069799;28;20502;-69
2023/03/03 06:04:23;;;;;;;1999.90;999.90;;;2.40;99.90;;;;;;5068645;28;20976;-69
2023/03/03 06:06:49;;;;;;;1999.90;999.90;;;2.50;99.90;;;;;;5075657;28;20834;-66
2023/03/03 06:09:19;;;;;;;1999.90;999.90;;;2.40;99.90;;;;;;5081880;28;20451;-69
2023/03/03 06:11:46;;;;;;;1999.90;999.90;;;2.40;99.90;;;;;;5081034;28;20481;-65
2023/03/03 06:14:12;;;;;;;1999.90;999.90;;;2.30;99.90;;;;;;5087775;28;20466;-68
2023/03/03 06:16:39;;;;;;;1999.90;999.90;;;2.30;99.90;;;;;;5090348;28;20959;-66
2023/03/03 06:19:06;;;;;;;1999.90;999.90;;;2.40;99.90;;;;;;5090287;28;20438;-65
2023/03/03 06:21:33;;;;;;;1999.90;999.90;;;2.40;99.90;;;;;;5090256;28;20520;-69
2023/03/03 06:23:59;;;;;;;1999.90;999.90;;;2.50;99.90;;;;;;5088685;28;20837;-67
2023/03/03 06:26:27;;;;;;;1999.90;999.90;;;2.60;99.90;;;;;;5090041;28;20450;-67
2023/03/03 06:28:54;;;;;;;1999.90;999.90;;;2.70;99.90;;;;;;5090056;28;20837;-67
2023/03/03 06:31:21;;;;;;;1999.90;999.90;;;2.70;99.90;;;;;;5089570;28;20442;-69
2023/03/03 06:33:48;;;;;;;1999.90;999.90;;;2.80;99.90;;;;;;5088580;28;20462;-68
2023/03/03 06:36:15;;;;;;;1999.90;999.90;;;2.80;99.90;;;;;;5089481;28;20994;-66
2023/03/03 06:38:42;;;;;;;1999.90;999.90;;;2.90;99.90;;;;;;5092640;28;20465;-67
2023/03/03 06:41:08;;;;;;;1999.90;999.90;;;2.90;99.90;;;;;;5093695;28;20515;-65
2023/03/03 06:43:37;;;;;;;1999.90;999.90;;;3.00;99.90;;;;;;5092696;28;20466;-69
2023/03/03 06:46:05;;;;;;;1999.90;999.90;;;3.00;99.90;;;;;;5092373;28;20453;-70
2023/03/03 06:48:32;;;;;;;1999.90;999.90;;;3.00;99.90;;;;;;5082671;28;21027;-69
2023/03/03 06:51:01;;;;;;;1999.90;999.90;;;3.00;99.90;;;;;;5079818;28;20451;-68
2023/03/03 06:53:28;;;;;;;1999.90;999.90;;;3.10;99.90;;;;;;5074571;28;20478;-67
2023/03/03 06:55:57;;;;;;;1999.90;999.90;;;3.20;99.90;;;;;;5078916;28;20446;-67
2023/03/03 06:58:26;;;;;;;1999.90;999.90;;;3.30;99.90;;;;;;5084117;28;20493;-67
2023/03/03 07:00:57;;;;;;;1999.90;999.90;;;3.40;99.90;;;;;;5081399;28;20442;-67
2023/03/03 07:03:26;;;;;;;1999.90;999.90;;;3.40;99.90;;;;;;5072021;28;20477;-67
2023/03/03 07:05:53;;;;;;;1999.90;999.90;;;3.50;99.90;;;;;;5076929;28;20491;-69
2023/03/03 07:08:22;;;;;;;1999.90;999.90;;;3.50;99.90;;;;;;5079552;28;20439;-67
2023/03/03 07:10:51;;;;;;;1999.90;999.90;;;3.70;99.90;;;;;;5080261;28;20994;-67
2023/03/03 07:13:21;;;;;;;1999.90;999.90;;;3.70;99.90;;;;;;5071985;28;20465;-65
2023/03/03 07:15:49;;;;;;;1999.90;999.90;;;3.80;99.90;;;;;;5073062;28;20442;-65
2023/03/03 07:18:33;;;;;;;1999.90;999.90;;;3.80;99.90;;;;;;5072696;28;20479;-66
2023/03/03 07:21:06;;;;;;;1999.90;999.90;;;4.00;99.90;;;;;;5072791;28;20447;-67
2023/03/03 07:23:41;;;;;;;1999.90;999.90;;;4.00;99.90;;;;;;5071485;28;20466;-67
2023/03/03 07:26:11;;;;;;;1999.90;999.90;;;4.20;99.90;;;;;;5072762;28;20478;-67
2023/03/03 07:28:41;;;;;;;1999.90;999.90;;;4.30;99.90;;;;;;5072654;28;20443;-68
2023/03/03 07:31:25;;;;;;;1999.90;999.90;;;4.40;99.90;;;;;;5072812;28;20496;-66
2023/03/03 07:33:54;;;;;;;1999.90;999.90;;;4.50;99.90;;;;;;5071702;28;20465;-65
2023/03/03 07:36:30;;;;;;;1999.90;999.90;;;4.60;99.90;;;;;;5072765;28;20454;-66
2023/03/03 07:39:04;;;;;;;1999.90;999.90;;;4.70;99.90;;;;;;5072566;28;20438;-69
2023/03/03 07:41:34;;;;;;;1999.90;999.90;;;4.70;99.90;;;;;;5072688;28;20991;-69
2023/03/03 07:44:06;;;;;;;1999.90;999.90;;;4.70;99.90;;;;;;5071603;28;20478;-68
2023/03/03 07:46:41;;;;;;;1999.90;999.90;;;4.90;99.90;;;;;;5072342;28;20947;-67
2023/03/03 07:49:21;;;;;;;1999.90;999.90;;;4.90;99.90;;;;;;5071481;28;20443;-66
2023/03/03 07:51:51;;;;;;;1999.90;999.90;;;4.80;99.90;;;;;;5072612;28;20451;-67
2023/03/03 07:54:30;;;;;;;1999.90;999.90;;;4.80;99.90;;;;;;5071254;28;20462;-67
2023/03/03 07:56:59;;;;;;;1999.90;999.90;;;4.90;99.90;;;;;;5072364;28;20479;-68
2023/03/03 07:59:28;;;;;;;1999.90;999.90;;;4.70;99.90;;;;;;5072148;28;20490;-66
2023/03/03 08:01:57;;;;;;;1999.90;999.90;;;4.70;99.90;;;;;;5071973;28;20447;-69
2023/03/03 08:04:46;;;;;;;1999.90;999.90;;;4.80;99.90;;;;;;5071106;28;20491;-67
2023/03/03 08:07:16;;;;;;;1999.90;999.90;;;4.70;99.90;;;;;;5072217;28;20929;-67
2023/03/03 08:09:49;;;;;;;1999.90;999.90;;;4.70;99.90;;;;;;5072179;28;20439;-67
2023/03/03 08:12:35;;;;;;;1999.90;999.90;;;4.80;99.90;;;;;;5071624;28;20812;-68
2023/03/03 08:15:30;;;;;;;1999.90;999.90;;;4.70;99.90;;;;;;5071953;28;20450;-71
2023/03/03 08:18:01;;;;;;;1999.90;999.90;;;4.90;99.90;;;;;;5058737;28;20475;-67
2023/03/03 08:20:45;;;;;;;1999.90;999.90;;;5.00;99.90;;;;;;5071894;28;21012;-68
2023/03/03 08:23:12;;;;;;;1999.90;999.90;;;5.00;99.90;;;;;;5070948;28;20521;-66
2023/03/03 08:25:41;;;;;;;1999.90;999.90;;;5.00;99.90;;;;;;5071789;28;20455;-67
2023/03/03 08:28:08;;;;;;;1999.90;999.90;;;4.90;99.90;;;;;;5071715;28;20526;-67
2023/03/03 08:30:35;;;;;;;1999.90;999.90;;;4.90;99.90;;;;;;5071466;28;20452;-67
2023/03/03 08:33:01;;;;;;;1999.90;999.90;;;5.00;99.90;;;;;;5070279;28;20471;-67
2023/03/03 08:35:32;;;;;;;1999.90;999.90;;;5.30;99.90;;;;;;5071618;28;20957;-68
2023/03/03 08:38:03;;;;;;;1999.90;999.90;;;5.50;99.90;;;;;;5071157;28;21080;-70
2023/03/03 08:40:36;;;;;;;1999.90;999.90;;;5.60;99.90;;;;;;5071785;28;20443;-67
2023/03/03 08:43:03;;;;;;;1999.90;999.90;;;5.60;99.90;;;;;;5070360;28;20471;-68
2023/03/03 08:45:31;;;;;;;1999.90;999.90;;;5.70;99.90;;;;;;5071142;28;20467;-68
2023/03/03 08:47:59;;;;;;;1999.90;999.90;;;5.70;99.90;;;;;;5071069;28;20499;-67
2023/03/03 08:50:28;;;;;;;1999.90;999.90;;;5.80;99.90;;;;;;5071429;28;20454;-67
2023/03/03 08:52:59;;;;;;;1999.90;999.90;;;6.00;99.90;;;;;;5069879;28;21026;-69
2023/03/03 08:55:27;;;;;;;1999.90;999.90;;;6.00;99.90;;;;;;5071095;28;20949;-67
2023/03/03 08:57:54;;;;;;;1999.90;999.90;;;5.90;99.90;;;;;;5070891;28;21012;-68
2023/03/03 09:00:31;;;;;;;;;;;;;;;;;;;;;
2023/03/03 09:02:58;;;;;;;1999.90;999.90;;;5.80;99.90;;;;;;5069863;28;20493;-68
2023/03/03 09:05:30;;;;;;;1999.90;999.90;;;5.90;99.90;;;;;;5071191;28;20458;-68
2023/03/03 09:07:58;;;;;;;1999.90;999.90;;;6.10;99.90;;;;;;5070847;28;20448;-68
2023/03/03 09:10:36;;;;;;;1999.90;999.90;;;6.30;99.90;;;;;;5070867;28;20478;-67
2023/03/03 09:13:11;;;;;;;1999.90;999.90;;;6.80;99.90;;;;;;5069444;28;20462;-69
2023/03/03 09:15:38;;;;;;;1999.90;999.90;;;6.70;99.90;;;;;;5070711;28;20939;-67
2023/03/03 09:18:16;;;;;;;1999.90;999.90;;;6.90;99.90;;;;;;5070453;28;20479;-69
2023/03/03 09:20:44;;;;;;;1999.90;999.90;;;7.10;99.90;;;;;;5070525;28;20976;-68
2023/03/03 09:23:33;;;;;;;1999.90;999.90;;;7.10;99.90;;;;;;5069061;28;20542;-67
2023/03/03 09:26:22;;;;;;;1999.90;999.90;;;7.10;99.90;;;;;;5070617;28;20444;-67
2023/03/03 09:28:49;;;;;;;1999.90;999.90;;;7.30;99.90;;;;;;5070429;28;20458;-68
2023/03/03 09:31:24;;;;;;;1999.90;999.90;;;7.70;99.90;;;;;;5070928;28;20447;-68
2023/03/03 09:33:54;;;;;;;1999.90;999.90;;;8.10;99.90;;;;;;5069347;28;20489;-67
2023/03/03 09:36:25;;;;;;;1999.90;999.90;;;8.30;99.90;;;;;;5070278;28;20465;-67
2023/03/03 09:38:52;;;;;;;1999.90;999.90;;;8.50;99.90;;;;;;5070270;28;20478;-66
2023/03/03 09:41:47;;;;;;;1999.90;999.90;;;8.80;99.90;;;;;;5070326;28;20447;-69
2023/03/03 09:44:36;;;;;;;1999.90;999.90;;;8.70;99.90;;;;;;5069007;28;20482;-69
2023/03/03 09:47:15;;;;;;;1999.90;999.90;;;8.70;99.90;;;;;;5070256;28;20434;-66
2023/03/03 09:49:53;;;;;;;1999.90;999.90;;;8.60;99.90;;;;;;5070040;28;20439;-67
2023/03/03 09:52:33;;;;;;;1999.90;999.90;;;8.70;99.90;;;;;;5069595;28;21038;-68
2023/03/03 09:55:13;;;;;;;1999.90;999.90;;;8.40;99.90;;;;;;5069993;28;20811;-67
2023/03/03 09:58:03;;;;;;;1999.90;999.90;;;8.20;99.90;;;;;;5070045;28;20485;-70
2023/03/03 10:00:39;;;;;;;1999.90;999.90;;;8.50;99.90;;;;;;5069946;28;20477;-69
2023/03/03 10:03:38;;;;;;;1999.90;999.90;;;9.00;99.90;;;;;;5068875;28;21016;-69
2023/03/03 10:06:15;;;;;;;1999.90;999.90;;;9.50;99.90;;;;;;5070192;28;20447;-71
2023/03/03 10:08:54;;;;;;;1999.90;999.90;;;9.80;99.90;;;;;;5070490;28;20423;-67
2023/03/03 10:11:28;;;;;;;1999.90;999.90;;;10.30;99.90;;;;;;5070361;28;20447;-68
2023/03/03 10:14:21;;;;;;;1999.90;999.90;;;10.70;99.90;;;;;;5068723;28;20463;-68
2023/03/03 10:17:19;;;;;;;1999.90;999.90;;;11.10;99.90;;;;;;5070252;28;20455;-66
2023/03/03 10:19:57;;;;;;;1999.90;999.90;;;10.70;99.90;;;;;;5070410;28;20443;-67
2023/03/03 10:22:32;;;;;;;1999.90;999.90;;;10.00;99.90;;;;;;5068932;28;20443;-67
2023/03/03 10:25:08;;;;;;;1999.90;999.90;;;9.60;99.90;;;;;;5069647;28;20445;-71
2023/03/03 10:27:47;;;;;;;1999.90;999.90;;;9.90;99.90;;;;;;5069848;28;20446;-67
2023/03/03 10:30:27;;;;;;;1999.90;999.90;;;10.10;99.90;;;;;;5069817;28;20453;-67
2023/03/03 10:33:01;;;;;;;1999.90;999.90;;;10.00;99.90;;;;;;5081821;28;20551;-69
2023/03/03 10:36:01;;;;;;;1999.90;999.90;;;9.80;99.90;;;;;;5077964;28;20446;-68
2023/03/03 10:38:45;;;;;;;1999.90;999.90;;;10.00;99.90;;;;;;5078969;28;20483;-68
2023/03/03 10:41:28;;;;;;;1999.90;999.90;;;9.80;99.90;;;;;;5081206;28;20872;-67
2023/03/03 10:44:18;;;;;;;1999.90;999.90;;;10.10;99.90;;;;;;5084240;28;20484;-67
2023/03/03 10:47:05;;;;;;;1999.90;999.90;;;10.60;99.90;;;;;;5089910;28;20448;-68
2023/03/03 10:49:45;;;;;;;1999.90;999.90;;;10.60;98.60;;;;;;5089785;28;20434;-69
2023/03/03 10:52:24;;;;;;;1999.90;999.90;;;10.80;99.00;;;;;;5089163;28;20450;-69
2023/03/03 10:55:27;;;;;;;1999.90;999.90;;;11.00;98.60;;;;;;5089171;28;20452;-69
2023/03/03 10:58:10;;;;;;;1999.90;999.90;;;11.20;97.90;;;;;;5089580;28;20484;-68
2023/03/03 11:00:44;;;;;;;1999.90;999.90;;;11.10;96.90;;;;;;5089701;28;20453;-70
2023/03/03 11:03:40;;;;;;;1999.90;999.90;;;11.50;97.20;;;;;;5088284;28;20465;-68
2023/03/03 11:06:14;;;;;;;1999.90;999.90;;;11.90;97.70;;;;;;5089599;28;20946;-68
2023/03/03 11:08:45;;;;;;;1999.90;999.90;;;12.00;95.40;;;;;;5089589;28;20519;-69
2023/03/03 11:11:23;;;;;;;1999.90;999.90;;;11.40;95.70;;;;;;5089461;28;20438;-69
2023/03/03 11:13:56;;;;;;;1999.90;999.90;;;11.20;95.80;;;;;;5088389;28;20482;-70
2023/03/03 11:16:42;;;;;;;1999.90;999.90;;;11.00;96.00;;;;;;5089640;28;20442;-68
2023/03/03 11:19:34;;;;;;;1999.90;999.90;;;10.80;98.30;;;;;;5089227;28;20481;-69
2023/03/03 11:22:13;;;;;;;1999.90;999.90;;;10.50;96.80;;;;;;5089466;28;20438;-68
2023/03/03 11:24:52;;;;;;;1999.90;999.90;;;9.80;98.40;;;;;;5089829;28;20473;-67
2023/03/03 11:27:53;;;;;;;1999.90;999.90;;;9.60;99.40;;;;;;5093398;28;20453;-68
2023/03/03 11:30:35;;;;;;;1999.90;999.90;;;9.80;99.20;;;;;;5058534;28;20834;-68
2023/03/03 11:33:06;;;;;;;1999.90;999.90;;;9.70;98.90;;;;;;5091655;28;20468;-68
2023/03/03 11:35:42;;;;;;;1999.90;999.90;;;9.70;99.90;;;;;;5093023;28;20452;-69
2023/03/03 11:38:24;;;;;;;1999.90;999.90;;;10.00;98.60;;;;;;5092866;28;20481;-68
2023/03/03 11:40:55;;;;;;;1999.90;999.90;;;10.30;98.40;;;;;;5088313;28;20535;-67
2023/03/03 11:43:29;;;;;;;1999.90;999.90;;;10.50;99.70;;;;;;5075122;28;20467;-67
2023/03/03 11:45:59;;;;;;;1999.90;999.90;;;10.90;97.40;;;;;;5072374;28;20453;-67
2023/03/03 11:48:35;;;;;;;1999.90;999.90;;;11.00;97.70;;;;;;5072595;28;20439;-67
2023/03/03 11:51:07;;;;;;;1999.90;999.90;;;10.90;96.60;;;;;;5072418;28;20458;-68
2023/03/03 11:53:51;;;;;;;1999.90;999.90;;;10.60;97.70;;;;;;5071367;28;20482;-69
2023/03/03 11:56:24;;;;;;;1999.90;999.90;;;10.70;97.90;;;;;;5089055;28;20438;-70
2023/03/03 11:59:14;;;;;;;1999.90;999.90;;;10.70;96.80;;;;;;5074500;28;21072;-68
2023/03/03 12:01:47;;;;;;;1999.90;999.90;;;10.50;96.80;;;;;;5072031;28;20454;-68
2023/03/03 12:04:18;;;;;;;1999.90;999.90;;;10.90;98.20;;;;;;5071317;28;20463;-69
2023/03/03 12:07:04;;;;;;;1999.90;999.90;;;11.30;96.40;;;;;;5072463;28;20959;-68
2023/03/03 12:09:42;;;;;;;1999.90;999.90;;;11.30;95.80;;;;;;5072180;28;20450;-68
2023/03/03 12:12:15;;;;;;;1999.90;999.90;;;11.40;95.60;;;;;;5071676;28;20447;-68
2023/03/03 12:14:55;;;;;;;1999.90;999.90;;;11.50;95.50;;;;;;5071681;28;20471;-68
2023/03/03 12:17:49;;;;;;;1999.90;999.90;;;12.70;94.70;;;;;;5072048;28;20960;-69
2023/03/03 12:20:25;;;;;;;1999.90;999.90;;;14.30;93.00;;;;;;5072030;28;20825;-67
2023/03/03 12:23:04;;;;;;;1999.90;999.90;;;15.50;90.10;;;;;;5070788;28;20463;-69
2023/03/03 12:25:37;;;;;;;1999.90;999.90;;;15.50;88.30;;;;;;5072063;28;20486;-68
2023/03/03 12:28:11;;;;;;;1999.90;999.90;;;16.30;84.60;;;;;;5077728;28;20446;-70
2023/03/03 12:31:07;;;;;;;1999.90;999.90;;;16.60;84.10;;;;;;5073722;28;20509;-68